sensor_id;sensor_type;location;lat;lon;timestamp;P1;durP1;ratioP1;P2;durP2;ratioP2
3068;SDS011;1545;51.728;8.796;2022-11-18T00:01:14;31.70;;;15.83;;
3068;SDS011;1545;51.728;8.796;2022-11-18T00:03:41;27.00;;;14.90;;
3068;SDS011;1545;51.728;8.796;2022-11-18T00:06:12;29.73;;;14.33;;
3068;SDS011;1545;51.728;8.796;2022-11-18T00:08:39;29.53;;;15.03;;
3068;SDS011;1545;51.728;8.796;2022-11-18T00:11:06;32.17;;;14.50;;
3068;SDS011;1545;51.728;8.796;2022-11-18T00:13:32;27.93;;;13.57;;
3068;SDS011;1545;51.728;8.796;2022-11-18T00:16:16;30.77;;;15.30;;
3068;SDS011;1545;51.728;8.796;2022-11-18T00:18:42;27.87;;;15.57;;
3068;SDS011;1545;51.728;8.796;2022-11-18T00:21:08;30.90;;;14.83;;
3068;SDS011;1545;51.728;8.796;2022-11-18T00:23:35;31.13;;;14.93;;
3068;SDS011;1545;51.728;8.796;2022-11-18T00:26:02;31.23;;;15.47;;
3068;SDS011;1545;51.728;8.796;2022-11-18T00:28:29;37.47;;;13.83;;
3068;SDS011;1545;51.728;8.796;2022-11-18T00:31:02;28.97;;;15.73;;
3068;SDS011;1545;51.728;8.796;2022-11-18T00:33:32;30.23;;;14.63;;
3068;SDS011;1545;51.728;8.796;2022-11-18T00:35:58;25.23;;;13.73;;
3068;SDS011;1545;51.728;8.796;2022-11-18T00:38:23;27.43;;;15.50;;
3068;SDS011;1545;51.728;8.796;2022-11-18T00:43:29;29.97;;;16.30;;
3068;SDS011;1545;51.728;8.796;2022-11-18T00:45:55;34.70;;;17.00;;
3068;SDS011;1545;51.728;8.796;2022-11-18T00:48:22;37.97;;;17.10;;
3068;SDS011;1545;51.728;8.796;2022-11-18T00:50:48;32.53;;;17.93;;
3068;SDS011;1545;51.728;8.796;2022-11-18T00:53:18;34.87;;;18.07;;
3068;SDS011;1545;51.728;8.796;2022-11-18T00:55:45;34.73;;;18.00;;
3068;SDS011;1545;51.728;8.796;2022-11-18T00:58:10;32.97;;;17.43;;
3068;SDS011;1545;51.728;8.796;2022-11-18T01:00:39;33.77;;;17.83;;
3068;SDS011;1545;51.728;8.796;2022-11-18T01:03:06;36.03;;;18.57;;
3068;SDS011;1545;51.728;8.796;2022-11-18T01:05:31;39.03;;;17.77;;
3068;SDS011;1545;51.728;8.796;2022-11-18T01:07:57;38.23;;;18.67;;
3068;SDS011;1545;51.728;8.796;2022-11-18T01:10:23;37.93;;;18.03;;
3068;SDS011;1545;51.728;8.796;2022-11-18T01:12:48;36.17;;;18.80;;
3068;SDS011;1545;51.728;8.796;2022-11-18T01:15:42;33.90;;;18.33;;
3068;SDS011;1545;51.728;8.796;2022-11-18T01:18:09;34.57;;;17.40;;
3068;SDS011;1545;51.728;8.796;2022-11-18T01:20:35;37.90;;;18.77;;
3068;SDS011;1545;51.728;8.796;2022-11-18T01:23:01;34.50;;;16.47;;
3068;SDS011;1545;51.728;8.796;2022-11-18T01:25:27;33.27;;;17.00;;
3068;SDS011;1545;51.728;8.796;2022-11-18T01:27:54;29.97;;;15.87;;
3068;SDS011;1545;51.728;8.796;2022-11-18T01:30:20;33.90;;;16.90;;
3068;SDS011;1545;51.728;8.796;2022-11-18T01:32:46;31.23;;;16.47;;
3068;SDS011;1545;51.728;8.796;2022-11-18T01:35:11;30.43;;;16.40;;
3068;SDS011;1545;51.728;8.796;2022-11-18T01:37:37;27.37;;;15.33;;
3068;SDS011;1545;51.728;8.796;2022-11-18T01:40:04;31.37;;;16.23;;
3068;SDS011;1545;51.728;8.796;2022-11-18T01:42:30;26.80;;;14.40;;
3068;SDS011;1545;51.728;8.796;2022-11-18T01:44:57;29.67;;;15.27;;
3068;SDS011;1545;51.728;8.796;2022-11-18T01:47:24;36.10;;;16.10;;
3068;SDS011;1545;51.728;8.796;2022-11-18T01:49:52;29.23;;;15.97;;
3068;SDS011;1545;51.728;8.796;2022-11-18T01:52:18;32.83;;;15.63;;
3068;SDS011;1545;51.728;8.796;2022-11-18T01:54:46;27.23;;;15.50;;
3068;SDS011;1545;51.728;8.796;2022-11-18T01:57:16;34.00;;;16.90;;
3068;SDS011;1545;51.728;8.796;2022-11-18T01:59:46;27.03;;;15.20;;
3068;SDS011;1545;51.728;8.796;2022-11-18T02:02:14;36.47;;;16.03;;
3068;SDS011;1545;51.728;8.796;2022-11-18T02:04:41;31.10;;;17.27;;
3068;SDS011;1545;51.728;8.796;2022-11-18T02:07:11;32.53;;;17.17;;
3068;SDS011;1545;51.728;8.796;2022-11-18T02:09:37;33.23;;;18.23;;
3068;SDS011;1545;51.728;8.796;2022-11-18T02:12:03;37.10;;;19.13;;
3068;SDS011;1545;51.728;8.796;2022-11-18T02:14:31;42.27;;;19.60;;
3068;SDS011;1545;51.728;8.796;2022-11-18T02:25:20;37.83;;;20.30;;
3068;SDS011;1545;51.728;8.796;2022-11-18T02:28:03;43.80;;;20.73;;
3068;SDS011;1545;51.728;8.796;2022-11-18T02:31:02;45.83;;;19.97;;
3068;SDS011;1545;51.728;8.796;2022-11-18T02:33:37;39.37;;;20.73;;
3068;SDS011;1545;51.728;8.796;2022-11-18T02:36:11;39.70;;;20.33;;
3068;SDS011;1545;51.728;8.796;2022-11-18T02:39:05;37.50;;;19.40;;
3068;SDS011;1545;51.728;8.796;2022-11-18T02:41:33;40.83;;;19.73;;
3068;SDS011;1545;51.728;8.796;2022-11-18T02:44:04;40.07;;;19.73;;
3068;SDS011;1545;51.728;8.796;2022-11-18T02:46:36;36.93;;;19.40;;
3068;SDS011;1545;51.728;8.796;2022-11-18T02:49:05;38.70;;;20.30;;
3068;SDS011;1545;51.728;8.796;2022-11-18T02:51:36;46.20;;;21.83;;
3068;SDS011;1545;51.728;8.796;2022-11-18T02:54:04;34.93;;;19.40;;
3068;SDS011;1545;51.728;8.796;2022-11-18T02:56:32;41.60;;;20.40;;
3068;SDS011;1545;51.728;8.796;2022-11-18T02:58:59;44.37;;;20.57;;
3068;SDS011;1545;51.728;8.796;2022-11-18T03:01:25;40.40;;;20.87;;
3068;SDS011;1545;51.728;8.796;2022-11-18T03:03:54;40.73;;;21.13;;
3068;SDS011;1545;51.728;8.796;2022-11-18T03:06:34;40.40;;;20.37;;
3068;SDS011;1545;51.728;8.796;2022-11-18T03:11:28;43.40;;;22.23;;
3068;SDS011;1545;51.728;8.796;2022-11-18T03:22:25;43.03;;;20.80;;
3068;SDS011;1545;51.728;8.796;2022-11-18T03:25:16;43.07;;;21.70;;
3068;SDS011;1545;51.728;8.796;2022-11-18T03:28:09;51.63;;;22.43;;
3068;SDS011;1545;51.728;8.796;2022-11-18T03:30:45;49.97;;;21.70;;
3068;SDS011;1545;51.728;8.796;2022-11-18T03:33:18;51.03;;;23.07;;
3068;SDS011;1545;51.728;8.796;2022-11-18T03:35:49;47.67;;;23.40;;
3068;SDS011;1545;51.728;8.796;2022-11-18T03:38:19;49.40;;;23.23;;
3068;SDS011;1545;51.728;8.796;2022-11-18T03:40:51;51.03;;;24.10;;
3068;SDS011;1545;51.728;8.796;2022-11-18T03:43:21;52.30;;;24.40;;
3068;SDS011;1545;51.728;8.796;2022-11-18T03:45:51;49.33;;;24.40;;
3068;SDS011;1545;51.728;8.796;2022-11-18T03:48:30;58.90;;;26.20;;
3068;SDS011;1545;51.728;8.796;2022-11-18T03:51:00;55.67;;;25.10;;
3068;SDS011;1545;51.728;8.796;2022-11-18T03:53:31;53.57;;;24.93;;
3068;SDS011;1545;51.728;8.796;2022-11-18T03:56:02;50.97;;;24.67;;
3068;SDS011;1545;51.728;8.796;2022-11-18T03:58:55;53.63;;;25.97;;
3068;SDS011;1545;51.728;8.796;2022-11-18T04:01:30;56.87;;;26.20;;
3068;SDS011;1545;51.728;8.796;2022-11-18T04:03:58;54.30;;;25.20;;
3068;SDS011;1545;51.728;8.796;2022-11-18T04:06:28;57.47;;;25.30;;
3068;SDS011;1545;51.728;8.796;2022-11-18T04:08:59;57.30;;;24.80;;
3068;SDS011;1545;51.728;8.796;2022-11-18T04:11:31;54.57;;;25.33;;
3068;SDS011;1545;51.728;8.796;2022-11-18T04:14:19;50.43;;;24.30;;
3068;SDS011;1545;51.728;8.796;2022-11-18T04:16:48;57.63;;;25.27;;
3068;SDS011;1545;51.728;8.796;2022-11-18T04:19:15;53.37;;;25.53;;
3068;SDS011;1545;51.728;8.796;2022-11-18T04:21:45;59.80;;;25.67;;
3068;SDS011;1545;51.728;8.796;2022-11-18T04:24:12;52.83;;;24.33;;
3068;SDS011;1545;51.728;8.796;2022-11-18T04:26:37;54.37;;;24.90;;
3068;SDS011;1545;51.728;8.796;2022-11-18T04:29:03;47.23;;;23.13;;
3068;SDS011;1545;51.728;8.796;2022-11-18T04:31:28;52.03;;;23.87;;
3068;SDS011;1545;51.728;8.796;2022-11-18T04:33:54;50.00;;;24.47;;
3068;SDS011;1545;51.728;8.796;2022-11-18T04:36:20;47.80;;;24.37;;
3068;SDS011;1545;51.728;8.796;2022-11-18T04:38:45;51.43;;;24.80;;
3068;SDS011;1545;51.728;8.796;2022-11-18T04:41:11;56.67;;;25.13;;
3068;SDS011;1545;51.728;8.796;2022-11-18T04:43:36;58.97;;;26.13;;
3068;SDS011;1545;51.728;8.796;2022-11-18T04:46:02;48.93;;;25.17;;
3068;SDS011;1545;51.728;8.796;2022-11-18T04:48:31;53.00;;;26.40;;
3068;SDS011;1545;51.728;8.796;2022-11-18T04:50:57;52.23;;;25.10;;
3068;SDS011;1545;51.728;8.796;2022-11-18T04:53:22;48.10;;;23.83;;
3068;SDS011;1545;51.728;8.796;2022-11-18T04:55:48;53.10;;;26.20;;
3068;SDS011;1545;51.728;8.796;2022-11-18T04:58:13;48.10;;;24.87;;
3068;SDS011;1545;51.728;8.796;2022-11-18T05:00:39;50.03;;;24.43;;
3068;SDS011;1545;51.728;8.796;2022-11-18T05:03:05;44.73;;;23.50;;
3068;SDS011;1545;51.728;8.796;2022-11-18T05:05:30;47.23;;;25.03;;
3068;SDS011;1545;51.728;8.796;2022-11-18T05:07:58;48.23;;;24.60;;
3068;SDS011;1545;51.728;8.796;2022-11-18T05:10:24;46.87;;;24.07;;
3068;SDS011;1545;51.728;8.796;2022-11-18T05:12:49;46.13;;;23.40;;
3068;SDS011;1545;51.728;8.796;2022-11-18T05:15:16;47.57;;;24.17;;
3068;SDS011;1545;51.728;8.796;2022-11-18T05:17:43;42.83;;;23.00;;
3068;SDS011;1545;51.728;8.796;2022-11-18T05:20:10;46.20;;;23.40;;
3068;SDS011;1545;51.728;8.796;2022-11-18T05:22:36;47.70;;;24.37;;
3068;SDS011;1545;51.728;8.796;2022-11-18T05:25:02;48.13;;;23.87;;
3068;SDS011;1545;51.728;8.796;2022-11-18T05:27:28;48.77;;;24.13;;
3068;SDS011;1545;51.728;8.796;2022-11-18T05:29:53;59.23;;;26.50;;
3068;SDS011;1545;51.728;8.796;2022-11-18T05:32:19;55.37;;;27.57;;
3068;SDS011;1545;51.728;8.796;2022-11-18T05:34:44;56.70;;;27.83;;
3068;SDS011;1545;51.728;8.796;2022-11-18T05:37:10;53.17;;;26.43;;
3068;SDS011;1545;51.728;8.796;2022-11-18T05:39:35;53.80;;;25.97;;
3068;SDS011;1545;51.728;8.796;2022-11-18T05:42:01;53.90;;;24.60;;
3068;SDS011;1545;51.728;8.796;2022-11-18T05:44:45;51.10;;;24.80;;
3068;SDS011;1545;51.728;8.796;2022-11-18T05:47:10;61.87;;;26.13;;
3068;SDS011;1545;51.728;8.796;2022-11-18T05:49:36;58.77;;;26.17;;
3068;SDS011;1545;51.728;8.796;2022-11-18T05:52:02;55.90;;;26.60;;
3068;SDS011;1545;51.728;8.796;2022-11-18T05:54:28;56.93;;;25.97;;
3068;SDS011;1545;51.728;8.796;2022-11-18T05:56:53;59.10;;;26.23;;
3068;SDS011;1545;51.728;8.796;2022-11-18T05:59:19;61.33;;;27.07;;
3068;SDS011;1545;51.728;8.796;2022-11-18T06:02:03;60.93;;;26.77;;
3068;SDS011;1545;51.728;8.796;2022-11-18T06:07:06;67.27;;;29.73;;
3068;SDS011;1545;51.728;8.796;2022-11-18T06:09:37;69.73;;;29.47;;
3068;SDS011;1545;51.728;8.796;2022-11-18T06:12:05;67.67;;;28.67;;
3068;SDS011;1545;51.728;8.796;2022-11-18T06:14:39;65.77;;;28.90;;
3068;SDS011;1545;51.728;8.796;2022-11-18T06:17:09;77.70;;;29.97;;
3068;SDS011;1545;51.728;8.796;2022-11-18T06:19:40;73.10;;;29.50;;
3068;SDS011;1545;51.728;8.796;2022-11-18T06:22:05;64.20;;;28.93;;
3068;SDS011;1545;51.728;8.796;2022-11-18T06:24:32;64.83;;;28.33;;
3068;SDS011;1545;51.728;8.796;2022-11-18T06:26:58;65.83;;;29.23;;
3068;SDS011;1545;51.728;8.796;2022-11-18T06:29:24;69.33;;;28.77;;
3068;SDS011;1545;51.728;8.796;2022-11-18T06:31:50;64.70;;;27.20;;
3068;SDS011;1545;51.728;8.796;2022-11-18T06:34:15;65.03;;;28.13;;
3068;SDS011;1545;51.728;8.796;2022-11-18T06:36:41;61.37;;;26.27;;
3068;SDS011;1545;51.728;8.796;2022-11-18T06:39:06;61.17;;;25.83;;
3068;SDS011;1545;51.728;8.796;2022-11-18T06:41:32;63.10;;;27.63;;
3068;SDS011;1545;51.728;8.796;2022-11-18T06:43:58;54.53;;;25.43;;
3068;SDS011;1545;51.728;8.796;2022-11-18T06:46:24;59.43;;;27.43;;
3068;SDS011;1545;51.728;8.796;2022-11-18T06:49:08;57.37;;;26.77;;
3068;SDS011;1545;51.728;8.796;2022-11-18T06:51:33;54.53;;;25.80;;
3068;SDS011;1545;51.728;8.796;2022-11-18T06:53:59;55.43;;;25.87;;
3068;SDS011;1545;51.728;8.796;2022-11-18T06:56:24;55.20;;;24.70;;
3068;SDS011;1545;51.728;8.796;2022-11-18T06:58:54;65.47;;;27.23;;
3068;SDS011;1545;51.728;8.796;2022-11-18T07:01:22;64.50;;;26.30;;
3068;SDS011;1545;51.728;8.796;2022-11-18T07:03:49;69.80;;;28.37;;
3068;SDS011;1545;51.728;8.796;2022-11-18T07:06:19;64.30;;;27.33;;
3068;SDS011;1545;51.728;8.796;2022-11-18T07:08:46;66.33;;;28.07;;
3068;SDS011;1545;51.728;8.796;2022-11-18T07:11:14;61.30;;;27.17;;
3068;SDS011;1545;51.728;8.796;2022-11-18T07:13:41;67.50;;;26.50;;
3068;SDS011;1545;51.728;8.796;2022-11-18T07:16:08;60.97;;;26.43;;
3068;SDS011;1545;51.728;8.796;2022-11-18T07:18:36;60.87;;;25.83;;
3068;SDS011;1545;51.728;8.796;2022-11-18T07:21:03;59.67;;;25.30;;
3068;SDS011;1545;51.728;8.796;2022-11-18T07:23:30;61.97;;;24.53;;
3068;SDS011;1545;51.728;8.796;2022-11-18T07:25:57;61.03;;;24.57;;
3068;SDS011;1545;51.728;8.796;2022-11-18T07:28:23;59.57;;;24.33;;
3068;SDS011;1545;51.728;8.796;2022-11-18T07:30:49;59.60;;;24.37;;
3068;SDS011;1545;51.728;8.796;2022-11-18T07:33:15;56.10;;;22.67;;
3068;SDS011;1545;51.728;8.796;2022-11-18T07:35:41;60.07;;;23.87;;
3068;SDS011;1545;51.728;8.796;2022-11-18T07:38:06;58.50;;;23.57;;
3068;SDS011;1545;51.728;8.796;2022-11-18T07:40:32;52.80;;;21.97;;
3068;SDS011;1545;51.728;8.796;2022-11-18T07:42:57;57.07;;;22.53;;
3068;SDS011;1545;51.728;8.796;2022-11-18T07:45:23;52.53;;;22.00;;
3068;SDS011;1545;51.728;8.796;2022-11-18T07:47:49;52.63;;;22.07;;
3068;SDS011;1545;51.728;8.796;2022-11-18T07:50:15;54.37;;;22.60;;
3068;SDS011;1545;51.728;8.796;2022-11-18T07:52:41;59.50;;;22.47;;
3068;SDS011;1545;51.728;8.796;2022-11-18T07:55:07;54.63;;;21.43;;
3068;SDS011;1545;51.728;8.796;2022-11-18T07:57:32;50.30;;;21.70;;
3068;SDS011;1545;51.728;8.796;2022-11-18T07:59:58;51.40;;;20.90;;
3068;SDS011;1545;51.728;8.796;2022-11-18T08:02:23;51.07;;;20.23;;
3068;SDS011;1545;51.728;8.796;2022-11-18T08:04:49;53.33;;;19.23;;
3068;SDS011;1545;51.728;8.796;2022-11-18T08:07:15;50.80;;;21.03;;
3068;SDS011;1545;51.728;8.796;2022-11-18T08:09:40;47.83;;;19.80;;
3068;SDS011;1545;51.728;8.796;2022-11-18T08:12:06;42.10;;;19.07;;
3068;SDS011;1545;51.728;8.796;2022-11-18T08:14:31;45.77;;;18.87;;
3068;SDS011;1545;51.728;8.796;2022-11-18T08:16:57;50.53;;;19.77;;
3068;SDS011;1545;51.728;8.796;2022-11-18T08:19:22;44.63;;;19.60;;
3068;SDS011;1545;51.728;8.796;2022-11-18T08:21:48;47.80;;;21.17;;
3068;SDS011;1545;51.728;8.796;2022-11-18T08:24:14;44.57;;;19.13;;
3068;SDS011;1545;51.728;8.796;2022-11-18T08:26:39;50.70;;;20.80;;
3068;SDS011;1545;51.728;8.796;2022-11-18T08:29:05;53.37;;;21.03;;
3068;SDS011;1545;51.728;8.796;2022-11-18T08:31:30;49.07;;;20.70;;
3068;SDS011;1545;51.728;8.796;2022-11-18T08:33:57;49.80;;;21.03;;
3068;SDS011;1545;51.728;8.796;2022-11-18T08:36:25;48.97;;;21.00;;
3068;SDS011;1545;51.728;8.796;2022-11-18T08:38:53;45.77;;;19.83;;
3068;SDS011;1545;51.728;8.796;2022-11-18T08:41:24;53.77;;;21.67;;
3068;SDS011;1545;51.728;8.796;2022-11-18T08:43:55;47.27;;;20.43;;
3068;SDS011;1545;51.728;8.796;2022-11-18T08:46:20;47.93;;;19.60;;
3068;SDS011;1545;51.728;8.796;2022-11-18T08:48:47;44.40;;;19.70;;
3068;SDS011;1545;51.728;8.796;2022-11-18T08:51:12;46.80;;;20.03;;
3068;SDS011;1545;51.728;8.796;2022-11-18T08:53:38;44.77;;;20.07;;
3068;SDS011;1545;51.728;8.796;2022-11-18T08:56:04;45.93;;;19.33;;
3068;SDS011;1545;51.728;8.796;2022-11-18T08:58:30;42.73;;;19.57;;
3068;SDS011;1545;51.728;8.796;2022-11-18T09:00:55;49.83;;;20.60;;
3068;SDS011;1545;51.728;8.796;2022-11-18T09:03:21;49.70;;;20.63;;
3068;SDS011;1545;51.728;8.796;2022-11-18T09:05:47;50.67;;;21.17;;
3068;SDS011;1545;51.728;8.796;2022-11-18T09:08:13;44.67;;;20.70;;
3068;SDS011;1545;51.728;8.796;2022-11-18T09:10:39;45.93;;;21.33;;
3068;SDS011;1545;51.728;8.796;2022-11-18T09:13:05;40.67;;;19.60;;
3068;SDS011;1545;51.728;8.796;2022-11-18T09:15:31;45.00;;;20.10;;
3068;SDS011;1545;51.728;8.796;2022-11-18T09:17:56;37.90;;;18.93;;
3068;SDS011;1545;51.728;8.796;2022-11-18T09:20:22;37.10;;;18.37;;
3068;SDS011;1545;51.728;8.796;2022-11-18T09:22:48;33.10;;;17.47;;
3068;SDS011;1545;51.728;8.796;2022-11-18T09:25:14;30.80;;;16.43;;
3068;SDS011;1545;51.728;8.796;2022-11-18T09:27:41;32.47;;;16.73;;
3068;SDS011;1545;51.728;8.796;2022-11-18T09:30:06;37.43;;;16.80;;
3068;SDS011;1545;51.728;8.796;2022-11-18T09:32:33;31.00;;;16.90;;
3068;SDS011;1545;51.728;8.796;2022-11-18T09:34:58;34.90;;;17.03;;
3068;SDS011;1545;51.728;8.796;2022-11-18T09:37:24;40.27;;;17.27;;
3068;SDS011;1545;51.728;8.796;2022-11-18T09:39:49;40.40;;;22.10;;
3068;SDS011;1545;51.728;8.796;2022-11-18T09:44:49;35.57;;;18.23;;
3068;SDS011;1545;51.728;8.796;2022-11-18T09:47:29;32.10;;;17.40;;
3068;SDS011;1545;51.728;8.796;2022-11-18T09:50:01;29.77;;;16.93;;
3068;SDS011;1545;51.728;8.796;2022-11-18T09:52:35;33.13;;;17.17;;
3068;SDS011;1545;51.728;8.796;2022-11-18T09:55:10;30.60;;;16.30;;
3068;SDS011;1545;51.728;8.796;2022-11-18T09:57:38;30.97;;;16.80;;
3068;SDS011;1545;51.728;8.796;2022-11-18T10:05:25;28.60;;;14.90;;
3068;SDS011;1545;51.728;8.796;2022-11-18T10:10:20;26.53;;;14.90;;
3068;SDS011;1545;51.728;8.796;2022-11-18T10:12:54;23.60;;;14.03;;
3068;SDS011;1545;51.728;8.796;2022-11-18T10:15:28;20.13;;;12.73;;
3068;SDS011;1545;51.728;8.796;2022-11-18T10:20:54;29.33;;;14.30;;
3068;SDS011;1545;51.728;8.796;2022-11-18T10:23:28;26.20;;;14.27;;
3068;SDS011;1545;51.728;8.796;2022-11-18T10:25:59;23.43;;;13.50;;
3068;SDS011;1545;51.728;8.796;2022-11-18T10:28:26;26.60;;;14.83;;
3068;SDS011;1545;51.728;8.796;2022-11-18T10:30:54;25.50;;;14.10;;
3068;SDS011;1545;51.728;8.796;2022-11-18T10:33:36;24.77;;;14.30;;
3068;SDS011;1545;51.728;8.796;2022-11-18T10:38:43;24.83;;;14.07;;
3068;SDS011;1545;51.728;8.796;2022-11-18T10:41:13;24.90;;;13.43;;
3068;SDS011;1545;51.728;8.796;2022-11-18T10:46:30;23.80;;;14.37;;
3068;SDS011;1545;51.728;8.796;2022-11-18T10:51:34;36.23;;;18.93;;
3068;SDS011;1545;51.728;8.796;2022-11-18T10:54:07;34.90;;;18.23;;
3068;SDS011;1545;51.728;8.796;2022-11-18T10:56:45;36.37;;;19.53;;
3068;SDS011;1545;51.728;8.796;2022-11-18T10:59:20;41.83;;;19.80;;
3068;SDS011;1545;51.728;8.796;2022-11-18T11:04:38;46.47;;;22.60;;
3068;SDS011;1545;51.728;8.796;2022-11-18T11:10:05;47.50;;;22.33;;
3068;SDS011;1545;51.728;8.796;2022-11-18T11:12:43;47.80;;;23.10;;
3068;SDS011;1545;51.728;8.796;2022-11-18T11:15:35;48.00;;;22.47;;
3068;SDS011;1545;51.728;8.796;2022-11-18T11:18:05;47.57;;;22.77;;
3068;SDS011;1545;51.728;8.796;2022-11-18T11:20:57;49.63;;;23.57;;
3068;SDS011;1545;51.728;8.796;2022-11-18T11:23:23;52.53;;;24.13;;
3068;SDS011;1545;51.728;8.796;2022-11-18T11:28:34;51.37;;;23.00;;
3068;SDS011;1545;51.728;8.796;2022-11-18T11:34:10;49.00;;;22.17;;
3068;SDS011;1545;51.728;8.796;2022-11-18T11:39:45;70.20;;;32.47;;
3068;SDS011;1545;51.728;8.796;2022-11-18T11:45:19;42.13;;;20.37;;
3068;SDS011;1545;51.728;8.796;2022-11-18T11:56:24;43.60;;;18.07;;
3068;SDS011;1545;51.728;8.796;2022-11-18T12:07:13;30.83;;;16.27;;
3068;SDS011;1545;51.728;8.796;2022-11-18T12:12:31;31.13;;;15.67;;
3068;SDS011;1545;51.728;8.796;2022-11-18T12:20:34;27.57;;;13.73;;
3068;SDS011;1545;51.728;8.796;2022-11-18T12:23:08;25.93;;;13.27;;
3068;SDS011;1545;51.728;8.796;2022-11-18T12:28:10;25.10;;;12.57;;
3068;SDS011;1545;51.728;8.796;2022-11-18T12:30:45;27.37;;;13.77;;
3068;SDS011;1545;51.728;8.796;2022-11-18T12:33:11;27.07;;;13.67;;
3068;SDS011;1545;51.728;8.796;2022-11-18T12:35:39;19.57;;;9.63;;
3068;SDS011;1545;51.728;8.796;2022-11-18T12:38:30;23.43;;;12.83;;
3068;SDS011;1545;51.728;8.796;2022-11-18T12:40:56;36.70;;;13.63;;
3068;SDS011;1545;51.728;8.796;2022-11-18T12:46:09;26.37;;;12.87;;
3068;SDS011;1545;51.728;8.796;2022-11-18T12:48:54;23.23;;;11.77;;
3068;SDS011;1545;51.728;8.796;2022-11-18T12:53:46;20.90;;;11.70;;
3068;SDS011;1545;51.728;8.796;2022-11-18T12:58:43;31.17;;;13.53;;
3068;SDS011;1545;51.728;8.796;2022-11-18T13:01:27;27.27;;;13.93;;
3068;SDS011;1545;51.728;8.796;2022-11-18T13:06:49;32.10;;;15.00;;
3068;SDS011;1545;51.728;8.796;2022-11-18T13:09:28;32.50;;;15.10;;
3068;SDS011;1545;51.728;8.796;2022-11-18T13:14:26;26.80;;;13.97;;
3068;SDS011;1545;51.728;8.796;2022-11-18T13:20:35;24.13;;;13.37;;
3068;SDS011;1545;51.728;8.796;2022-11-18T13:25:52;18.83;;;11.20;;
3068;SDS011;1545;51.728;8.796;2022-11-18T13:28:31;18.90;;;10.87;;
3068;SDS011;1545;51.728;8.796;2022-11-18T13:31:02;17.30;;;9.53;;
3068;SDS011;1545;51.728;8.796;2022-11-18T13:33:48;17.40;;;9.80;;
3068;SDS011;1545;51.728;8.796;2022-11-18T13:36:15;15.27;;;8.87;;
3068;SDS011;1545;51.728;8.796;2022-11-18T13:38:54;16.17;;;8.93;;
3068;SDS011;1545;51.728;8.796;2022-11-18T13:41:23;14.70;;;8.03;;
3068;SDS011;1545;51.728;8.796;2022-11-18T13:44:08;13.50;;;7.60;;
3068;SDS011;1545;51.728;8.796;2022-11-18T13:46:40;11.50;;;7.07;;
3068;SDS011;1545;51.728;8.796;2022-11-18T13:49:09;13.33;;;6.97;;
3068;SDS011;1545;51.728;8.796;2022-11-18T13:51:40;12.60;;;7.20;;
3068;SDS011;1545;51.728;8.796;2022-11-18T13:54:06;11.73;;;7.47;;
3068;SDS011;1545;51.728;8.796;2022-11-18T13:56:41;13.00;;;8.03;;
3068;SDS011;1545;51.728;8.796;2022-11-18T13:59:12;13.07;;;7.73;;
3068;SDS011;1545;51.728;8.796;2022-11-18T14:01:45;16.37;;;8.77;;
3068;SDS011;1545;51.728;8.796;2022-11-18T14:07:22;12.93;;;7.40;;
3068;SDS011;1545;51.728;8.796;2022-11-18T14:09:54;12.10;;;7.17;;
3068;SDS011;1545;51.728;8.796;2022-11-18T14:12:24;13.10;;;7.73;;
3068;SDS011;1545;51.728;8.796;2022-11-18T14:14:52;12.93;;;7.27;;
3068;SDS011;1545;51.728;8.796;2022-11-18T14:17:50;12.33;;;7.47;;
3068;SDS011;1545;51.728;8.796;2022-11-18T14:20:21;11.70;;;7.63;;
3068;SDS011;1545;51.728;8.796;2022-11-18T14:22:51;14.13;;;8.17;;
3068;SDS011;1545;51.728;8.796;2022-11-18T14:25:29;13.47;;;7.93;;
3068;SDS011;1545;51.728;8.796;2022-11-18T14:28:08;13.43;;;8.27;;
3068;SDS011;1545;51.728;8.796;2022-11-18T14:33:02;12.43;;;7.07;;
3068;SDS011;1545;51.728;8.796;2022-11-18T14:35:42;15.37;;;8.13;;
3068;SDS011;1545;51.728;8.796;2022-11-18T14:38:21;13.57;;;7.60;;
3068;SDS011;1545;51.728;8.796;2022-11-18T14:40:56;14.90;;;8.17;;
3068;SDS011;1545;51.728;8.796;2022-11-18T14:43:24;14.97;;;8.63;;
3068;SDS011;1545;51.728;8.796;2022-11-18T14:45:54;15.27;;;8.77;;
3068;SDS011;1545;51.728;8.796;2022-11-18T14:48:23;16.80;;;8.70;;
3068;SDS011;1545;51.728;8.796;2022-11-18T14:50:50;17.67;;;8.30;;
3068;SDS011;1545;51.728;8.796;2022-11-18T14:53:16;12.80;;;7.63;;
3068;SDS011;1545;51.728;8.796;2022-11-18T14:55:43;12.23;;;7.70;;
3068;SDS011;1545;51.728;8.796;2022-11-18T14:58:12;11.90;;;7.03;;
3068;SDS011;1545;51.728;8.796;2022-11-18T15:00:40;14.30;;;7.00;;
3068;SDS011;1545;51.728;8.796;2022-11-18T15:03:06;11.83;;;6.33;;
3068;SDS011;1545;51.728;8.796;2022-11-18T15:05:32;12.03;;;7.07;;
3068;SDS011;1545;51.728;8.796;2022-11-18T15:07:58;10.63;;;7.00;;
3068;SDS011;1545;51.728;8.796;2022-11-18T15:10:23;9.67;;;5.63;;
3068;SDS011;1545;51.728;8.796;2022-11-18T15:12:49;8.83;;;5.83;;
3068;SDS011;1545;51.728;8.796;2022-11-18T15:15:14;10.50;;;5.97;;
3068;SDS011;1545;51.728;8.796;2022-11-18T15:17:40;9.27;;;5.60;;
3068;SDS011;1545;51.728;8.796;2022-11-18T15:20:06;9.40;;;5.90;;
3068;SDS011;1545;51.728;8.796;2022-11-18T15:22:38;10.67;;;6.90;;
3068;SDS011;1545;51.728;8.796;2022-11-18T15:25:04;10.10;;;6.23;;
3068;SDS011;1545;51.728;8.796;2022-11-18T15:27:30;10.60;;;6.60;;
3068;SDS011;1545;51.728;8.796;2022-11-18T15:29:55;11.23;;;6.57;;
3068;SDS011;1545;51.728;8.796;2022-11-18T15:32:21;9.33;;;6.37;;
3068;SDS011;1545;51.728;8.796;2022-11-18T15:34:46;11.67;;;6.17;;
3068;SDS011;1545;51.728;8.796;2022-11-18T15:37:12;16.60;;;6.77;;
3068;SDS011;1545;51.728;8.796;2022-11-18T15:39:38;10.00;;;6.10;;
3068;SDS011;1545;51.728;8.796;2022-11-18T15:42:03;10.73;;;5.60;;
3068;SDS011;1545;51.728;8.796;2022-11-18T15:44:29;8.07;;;5.30;;
3068;SDS011;1545;51.728;8.796;2022-11-18T15:46:54;7.60;;;5.37;;
3068;SDS011;1545;51.728;8.796;2022-11-18T15:49:21;9.07;;;5.37;;
3068;SDS011;1545;51.728;8.796;2022-11-18T15:51:47;8.40;;;5.27;;
3068;SDS011;1545;51.728;8.796;2022-11-18T15:54:12;7.83;;;4.97;;
3068;SDS011;1545;51.728;8.796;2022-11-18T15:56:38;8.50;;;5.27;;
3068;SDS011;1545;51.728;8.796;2022-11-18T15:59:09;8.17;;;4.90;;
3068;SDS011;1545;51.728;8.796;2022-11-18T16:01:37;10.67;;;5.17;;
3068;SDS011;1545;51.728;8.796;2022-11-18T16:04:05;7.27;;;5.20;;
3068;SDS011;1545;51.728;8.796;2022-11-18T16:06:32;7.70;;;5.33;;
3068;SDS011;1545;51.728;8.796;2022-11-18T16:08:58;10.23;;;5.77;;
3068;SDS011;1545;51.728;8.796;2022-11-18T16:11:24;8.70;;;5.57;;
3068;SDS011;1545;51.728;8.796;2022-11-18T16:14:09;8.67;;;5.60;;
3068;SDS011;1545;51.728;8.796;2022-11-18T16:16:37;6.67;;;4.57;;
3068;SDS011;1545;51.728;8.796;2022-11-18T16:19:04;6.67;;;4.67;;
3068;SDS011;1545;51.728;8.796;2022-11-18T16:21:33;7.23;;;4.40;;
3068;SDS011;1545;51.728;8.796;2022-11-18T16:24:01;7.47;;;5.23;;
3068;SDS011;1545;51.728;8.796;2022-11-18T16:26:30;6.97;;;5.10;;
3068;SDS011;1545;51.728;8.796;2022-11-18T16:28:57;8.37;;;5.57;;
3068;SDS011;1545;51.728;8.796;2022-11-18T16:31:23;9.53;;;5.30;;
3068;SDS011;1545;51.728;8.796;2022-11-18T16:37:02;8.07;;;5.37;;
3068;SDS011;1545;51.728;8.796;2022-11-18T16:39:28;9.47;;;5.47;;
3068;SDS011;1545;51.728;8.796;2022-11-18T16:41:55;8.07;;;5.17;;
3068;SDS011;1545;51.728;8.796;2022-11-18T16:44:25;10.03;;;6.03;;
3068;SDS011;1545;51.728;8.796;2022-11-18T16:46:52;7.93;;;5.23;;
3068;SDS011;1545;51.728;8.796;2022-11-18T16:49:23;8.13;;;5.10;;
3068;SDS011;1545;51.728;8.796;2022-11-18T16:51:51;8.53;;;5.30;;
3068;SDS011;1545;51.728;8.796;2022-11-18T16:54:19;9.13;;;5.53;;
3068;SDS011;1545;51.728;8.796;2022-11-18T16:56:47;6.97;;;4.83;;
3068;SDS011;1545;51.728;8.796;2022-11-18T16:59:14;7.17;;;4.90;;
3068;SDS011;1545;51.728;8.796;2022-11-18T17:01:47;7.20;;;4.80;;
3068;SDS011;1545;51.728;8.796;2022-11-18T17:04:14;6.43;;;4.40;;